Bottle Creek, Nevada
Current Conditions -  °F | °C
As of 1:56 PM on Monday 20 Oct 2014 (Local Time) from KWMC Reporting Station
Clear Clear  
Wind Chill: 73°   Ceiling: Unl
Heat Index: 73°   Visibility: 10mi
Dew Point: 28°   Wind: 13mph
Humidity: 19%   Direction: 200°SSW
Pressure: 29.86"   Gusts: 22mph
Location:  41.1353°N, 118.186°W
Report Text: KWMC 202056Z AUTO 20011G19KT 170V240 10SM CLR 23/M02 A2986 RMK AO2 SLP087 T02281022 56024
Loading
Personal Weather Stations






























Interactive Weather Map
Tropical Storm Tracking
New forecast layout! Learn more

10-Day Weather Forecast

Advertisements
Track Severe Weather on mobile